createdAt,value
2022-11-07T00:00:21.926Z,97.67
2022-11-07T00:01:21.972Z,97.67
2022-11-07T00:02:21.943Z,97.52
2022-11-07T00:03:21.984Z,97.52
2022-11-07T00:04:21.866Z,97.52
2022-11-07T00:05:21.868Z,97.52
2022-11-07T00:06:21.850Z,97.52
2022-11-07T00:07:21.835Z,97.63
2022-11-07T00:08:21.823Z,97.83
2022-11-07T00:09:21.807Z,97.89
2022-11-07T00:10:21.796Z,97.68
2022-11-07T00:11:21.785Z,97.58
2022-11-07T00:12:21.768Z,97.68
2022-11-07T00:13:21.784Z,97.78
2022-11-07T00:14:21.741Z,97.64
2022-11-07T00:15:21.739Z,97.53
2022-11-07T00:16:21.717Z,97.33
2022-11-07T00:17:21.704Z,97.33
2022-11-07T00:18:21.695Z,97.13
2022-11-07T00:19:21.683Z,97.13
2022-11-07T00:20:21.666Z,97.02
2022-11-07T00:21:21.659Z,96.92
2022-11-07T00:22:21.644Z,96.92
2022-11-07T00:23:21.634Z,96.92
2022-11-07T00:24:21.616Z,96.81
2022-11-07T00:25:21.606Z,96.77
2022-11-07T00:26:21.601Z,96.71
2022-11-07T00:27:21.725Z,96.61
2022-11-07T00:28:21.570Z,96.50
2022-11-07T00:29:21.578Z,96.50
2022-11-07T00:30:21.535Z,96.41
2022-11-07T00:31:21.526Z,96.41
2022-11-07T00:32:21.514Z,96.41
2022-11-07T00:33:21.502Z,96.50
2022-11-07T00:34:21.492Z,96.66
2022-11-07T00:35:21.475Z,96.66
2022-11-07T00:36:21.465Z,96.86
2022-11-07T00:37:21.451Z,96.86
2022-11-07T00:38:21.436Z,96.96
2022-11-07T00:39:21.429Z,97.06
2022-11-07T00:40:21.418Z,97.17
2022-11-07T00:41:21.400Z,97.17
2022-11-07T00:42:21.389Z,97.42
2022-11-07T00:43:21.372Z,97.52
2022-11-07T00:44:21.362Z,97.63
2022-11-07T00:45:21.379Z,97.73
2022-11-07T00:46:21.341Z,97.83
2022-11-07T00:47:21.326Z,97.83
2022-11-07T00:48:21.320Z,97.94
2022-11-07T00:49:21.296Z,98.14
2022-11-07T00:50:21.285Z,98.45
2022-11-07T00:51:21.272Z,98.55
2022-11-07T00:52:21.259Z,98.66
2022-11-07T00:53:21.247Z,98.70
2022-11-07T00:54:21.235Z,98.80
2022-11-07T00:55:21.222Z,98.91
2022-11-07T00:56:21.213Z,98.91
2022-11-07T00:57:21.193Z,99.01
2022-11-07T00:58:21.181Z,99.11
2022-11-07T00:59:21.166Z,99.43
2022-11-07T01:00:21.155Z,99.43
2022-11-07T01:01:21.394Z,99.43
2022-11-07T01:02:21.251Z,99.43
2022-11-07T01:03:21.119Z,99.32
2022-11-07T01:04:21.108Z,99.22
2022-11-07T01:05:21.100Z,99.32
2022-11-07T01:06:21.083Z,99.26
2022-11-07T01:07:21.073Z,99.37
2022-11-07T01:08:21.056Z,99.47
2022-11-07T01:09:21.041Z,99.68
2022-11-07T01:10:21.036Z,99.88
2022-11-07T01:11:21.022Z,99.99
2022-11-07T01:12:21.008Z,99.99
2022-11-07T01:13:20.992Z,99.99
2022-11-07T01:14:20.980Z,99.99
2022-11-07T01:15:20.971Z,99.99
2022-11-07T01:16:20.961Z,99.99
2022-11-07T01:17:20.967Z,99.99
2022-11-07T01:18:20.928Z,99.99
2022-11-07T01:19:20.914Z,99.99
2022-11-07T01:20:20.902Z,99.99
2022-11-07T01:21:20.890Z,99.99
2022-11-07T01:22:20.876Z,99.99
2022-11-07T01:23:20.871Z,99.99
2022-11-07T01:24:20.853Z,99.99
2022-11-07T01:25:20.839Z,99.99
2022-11-07T01:26:20.827Z,99.99
2022-11-07T01:27:20.812Z,99.99
2022-11-07T01:28:20.805Z,99.99
2022-11-07T01:29:20.785Z,99.99
2022-11-07T01:30:20.782Z,99.99
2022-11-07T01:31:20.765Z,99.99
2022-11-07T01:32:20.752Z,99.99
2022-11-07T01:33:20.853Z,99.99
2022-11-07T01:34:20.736Z,99.99
2022-11-07T01:35:20.713Z,99.99
2022-11-07T01:36:20.701Z,99.99
2022-11-07T01:37:20.687Z,99.99
2022-11-07T01:38:20.678Z,99.99
2022-11-07T01:39:20.666Z,99.99
2022-11-07T01:40:20.646Z,99.99
2022-11-07T01:41:20.636Z,99.99
2022-11-07T01:42:20.620Z,99.99
2022-11-07T01:43:20.613Z,99.99
2022-11-07T01:44:20.597Z,99.99
2022-11-07T01:45:20.589Z,99.99
2022-11-07T01:46:20.571Z,99.99
2022-11-07T01:47:20.561Z,99.99
2022-11-07T01:48:20.546Z,99.99
2022-11-07T01:49:20.563Z,99.99
2022-11-07T01:50:23.898Z,99.99
2022-11-07T01:51:20.508Z,99.99
2022-11-07T01:52:20.492Z,99.99
2022-11-07T01:53:20.481Z,99.99
2022-11-07T01:54:20.464Z,99.99
2022-11-07T01:55:20.454Z,99.99
2022-11-07T01:56:20.443Z,99.99
2022-11-07T01:57:20.430Z,99.99
2022-11-07T01:58:20.414Z,99.99
2022-11-07T01:59:20.409Z,99.99
2022-11-07T02:00:20.396Z,99.99
2022-11-07T02:01:20.425Z,99.99
2022-11-07T02:02:20.466Z,99.99
2022-11-07T02:03:20.353Z,99.99
2022-11-07T02:04:20.353Z,99.99
2022-11-07T02:05:20.353Z,99.99
2022-11-07T02:06:20.319Z,99.99
2022-11-07T02:07:20.300Z,99.99
2022-11-07T02:08:20.293Z,99.99
2022-11-07T02:09:20.273Z,99.99
2022-11-07T02:10:20.261Z,99.99
2022-11-07T02:11:20.253Z,99.93
2022-11-07T02:12:20.234Z,99.82
2022-11-07T02:13:20.225Z,99.82
2022-11-07T02:14:20.211Z,99.82
2022-11-07T02:15:20.190Z,99.82
2022-11-07T02:16:20.193Z,99.93
2022-11-07T02:17:20.173Z,99.98
2022-11-07T02:18:20.158Z,99.99
2022-11-07T02:19:20.145Z,99.99
2022-11-07T02:20:20.132Z,99.99
2022-11-07T02:21:20.144Z,99.99
2022-11-07T02:22:20.103Z,99.99
2022-11-07T02:23:20.091Z,99.99
2022-11-07T02:24:20.078Z,99.99
2022-11-07T02:25:20.065Z,99.99
2022-11-07T02:26:20.051Z,99.99
2022-11-07T02:27:20.039Z,99.99
2022-11-07T02:28:20.025Z,99.99
2022-11-07T02:29:20.024Z,99.99
2022-11-07T02:30:20.000Z,99.99
2022-11-07T02:31:19.993Z,99.99
2022-11-07T02:32:19.976Z,99.99
2022-11-07T02:33:19.962Z,99.99
2022-11-07T02:34:19.953Z,99.99
2022-11-07T02:35:19.933Z,99.99
2022-11-07T02:36:19.933Z,99.99
2022-11-07T02:37:19.936Z,99.99
2022-11-07T02:38:19.897Z,99.99
2022-11-07T02:39:19.889Z,99.99
2022-11-07T02:40:19.873Z,99.99
2022-11-07T02:41:19.868Z,99.99
2022-11-07T02:42:19.849Z,99.99
2022-11-07T02:43:19.835Z,99.99
2022-11-07T02:44:19.820Z,99.99
2022-11-07T02:45:19.814Z,99.99
2022-11-07T02:46:19.792Z,99.99
2022-11-07T02:47:19.782Z,99.99
2022-11-07T02:48:19.773Z,99.99
2022-11-07T02:49:19.762Z,99.99
2022-11-07T02:50:19.743Z,99.99
2022-11-07T02:51:19.731Z,99.99
2022-11-07T02:52:19.717Z,99.99
2022-11-07T02:53:19.729Z,99.99
2022-11-07T02:54:19.699Z,99.99
2022-11-07T02:55:19.680Z,99.99
2022-11-07T02:56:19.670Z,99.99
2022-11-07T02:57:19.666Z,99.99
2022-11-07T02:58:19.643Z,99.99
2022-11-07T02:59:24.270Z,99.99
2022-11-07T03:00:20.649Z,99.99
2022-11-07T03:01:19.677Z,99.99
2022-11-07T03:02:19.693Z,99.99
2022-11-07T03:03:19.580Z,99.99
2022-11-07T03:04:19.564Z,99.99
2022-11-07T03:05:19.559Z,99.99
2022-11-07T03:06:19.541Z,99.99
2022-11-07T03:07:19.525Z,99.99
2022-11-07T03:08:19.512Z,99.99
2022-11-07T03:09:19.535Z,99.99
2022-11-07T03:10:19.490Z,99.99
2022-11-07T03:11:19.476Z,99.99
2022-11-07T03:12:19.464Z,99.99
2022-11-07T03:13:19.451Z,99.99
2022-11-07T03:14:19.499Z,99.99
2022-11-07T03:15:19.427Z,99.99
2022-11-07T03:16:19.412Z,99.99
2022-11-07T03:17:19.397Z,99.99
2022-11-07T03:18:19.389Z,99.99
2022-11-07T03:19:19.382Z,99.99
2022-11-07T03:20:19.362Z,99.99
2022-11-07T03:21:19.347Z,99.99
2022-11-07T03:22:19.333Z,99.99
2022-11-07T03:23:19.328Z,99.99
2022-11-07T03:24:19.310Z,99.99
2022-11-07T03:25:19.475Z,99.99
2022-11-07T03:26:19.284Z,99.99
2022-11-07T03:27:19.273Z,99.99
2022-11-07T03:28:19.267Z,99.99
2022-11-07T03:29:19.251Z,99.99
2022-11-07T03:30:19.236Z,99.99
2022-11-07T03:31:19.253Z,99.99
2022-11-07T03:32:19.205Z,99.99
2022-11-07T03:33:19.202Z,99.99
2022-11-07T03:34:19.182Z,99.99
2022-11-07T03:35:19.176Z,99.99
2022-11-07T03:36:19.156Z,99.99
2022-11-07T03:37:19.142Z,99.99
2022-11-07T03:38:19.131Z,99.99
2022-11-07T03:39:23.193Z,99.99
2022-11-07T03:40:20.144Z,99.99
2022-11-07T03:41:19.117Z,99.99
2022-11-07T03:42:19.080Z,99.99
2022-11-07T03:43:19.069Z,99.99
2022-11-07T03:44:19.055Z,99.99
2022-11-07T03:45:19.043Z,99.99
2022-11-07T03:46:19.043Z,99.99
2022-11-07T03:47:19.019Z,99.99
2022-11-07T03:48:19.003Z,99.99
2022-11-07T03:49:18.995Z,99.99
2022-11-07T03:50:18.982Z,99.99
2022-11-07T03:51:18.967Z,99.99
2022-11-07T03:52:18.950Z,99.99
2022-11-07T03:53:24.810Z,99.99
2022-11-07T03:54:19.964Z,99.99
2022-11-07T03:55:18.919Z,99.99
2022-11-07T03:56:18.900Z,99.99
2022-11-07T03:57:18.911Z,99.99
2022-11-07T03:58:18.878Z,99.99
2022-11-07T03:59:18.863Z,99.99
2022-11-07T04:00:18.849Z,99.99
2022-11-07T04:01:18.872Z,99.99
2022-11-07T04:02:19.152Z,99.99
2022-11-07T04:03:18.808Z,99.99
2022-11-07T04:04:18.806Z,99.99
2022-11-07T04:05:18.789Z,99.99
2022-11-07T04:06:18.773Z,99.99
2022-11-07T04:07:18.758Z,99.99
2022-11-07T04:08:18.747Z,99.99
2022-11-07T04:09:18.733Z,99.99
2022-11-07T04:10:18.721Z,99.99
2022-11-07T04:11:18.708Z,99.99
2022-11-07T04:12:18.694Z,99.99
2022-11-07T04:13:18.708Z,99.99
2022-11-07T04:14:18.671Z,99.99
2022-11-07T04:15:18.657Z,99.99
2022-11-07T04:16:18.645Z,99.99
2022-11-07T04:17:18.635Z,99.99
2022-11-07T04:18:18.621Z,99.99
2022-11-07T04:19:18.607Z,99.99
2022-11-07T04:20:18.590Z,99.99
2022-11-07T04:21:18.587Z,99.99
2022-11-07T04:22:18.579Z,99.99
2022-11-07T04:23:18.601Z,99.99
2022-11-07T04:24:18.538Z,99.99
2022-11-07T04:25:18.526Z,99.99
2022-11-07T04:26:18.509Z,99.99
2022-11-07T04:27:18.500Z,99.99
2022-11-07T04:28:18.487Z,99.99
2022-11-07T04:29:18.499Z,99.99
2022-11-07T04:30:18.468Z,99.99
2022-11-07T04:31:18.448Z,99.99
2022-11-07T04:32:18.440Z,99.99
2022-11-07T04:33:18.424Z,99.99
2022-11-07T04:34:18.410Z,99.99
2022-11-07T04:35:18.397Z,99.99
2022-11-07T04:36:18.397Z,99.99
2022-11-07T04:37:18.372Z,99.99
2022-11-07T04:38:18.361Z,99.99
2022-11-07T04:39:18.350Z,99.99
2022-11-07T04:40:18.330Z,99.99
2022-11-07T04:41:18.327Z,99.99
2022-11-07T04:42:18.306Z,99.99
2022-11-07T04:43:18.298Z,99.99
2022-11-07T04:44:18.282Z,99.99
2022-11-07T04:45:18.296Z,99.99
2022-11-07T04:46:18.258Z,99.99
2022-11-07T04:47:18.248Z,99.99
2022-11-07T04:48:18.237Z,99.99
2022-11-07T04:49:18.217Z,99.99
2022-11-07T04:50:18.212Z,99.99
2022-11-07T04:51:18.190Z,99.99
2022-11-07T04:52:18.183Z,99.99
2022-11-07T04:53:18.266Z,99.99
2022-11-07T04:54:18.150Z,99.99
2022-11-07T04:55:18.143Z,99.99
2022-11-07T04:56:18.128Z,99.99
2022-11-07T04:57:18.113Z,99.99
2022-11-07T04:58:18.099Z,99.99
2022-11-07T04:59:18.095Z,99.99
2022-11-07T05:00:18.077Z,99.99
2022-11-07T05:01:18.084Z,99.99
2022-11-07T05:02:18.172Z,99.99
2022-11-07T05:03:18.550Z,99.99
2022-11-07T05:04:18.023Z,99.99
2022-11-07T05:05:18.007Z,99.99
2022-11-07T05:06:17.996Z,99.99
2022-11-07T05:07:17.988Z,99.99
2022-11-07T05:08:17.972Z,99.99
2022-11-07T05:09:17.965Z,99.99
2022-11-07T05:10:17.949Z,99.99
2022-11-07T05:11:17.932Z,99.99
2022-11-07T05:12:17.922Z,99.99
2022-11-07T05:13:18.000Z,99.99
2022-11-07T05:14:17.894Z,99.99
2022-11-07T05:15:17.881Z,99.99
2022-11-07T05:16:17.875Z,99.99
2022-11-07T05:17:17.882Z,99.99
2022-11-07T05:18:17.847Z,99.99
2022-11-07T05:19:17.840Z,99.99
2022-11-07T05:20:17.816Z,99.99
2022-11-07T05:21:17.804Z,99.99
2022-11-07T05:22:17.787Z,99.99
2022-11-07T05:23:18.249Z,99.99
2022-11-07T05:24:17.762Z,99.99
2022-11-07T05:25:17.749Z,99.99
2022-11-07T05:26:17.733Z,99.99
2022-11-07T05:27:17.730Z,99.99
2022-11-07T05:28:19.847Z,99.99
2022-11-07T05:29:17.695Z,99.99
2022-11-07T05:30:17.681Z,99.99
2022-11-07T05:31:17.687Z,99.99
2022-11-07T05:32:17.669Z,99.99
2022-11-07T05:33:18.137Z,99.99
2022-11-07T05:34:17.630Z,99.99
2022-11-07T05:35:17.618Z,99.99
2022-11-07T05:36:17.611Z,99.99
2022-11-07T05:37:17.593Z,99.99
2022-11-07T05:38:17.579Z,99.99
2022-11-07T05:39:17.584Z,99.99
2022-11-07T05:40:17.554Z,99.99
2022-11-07T05:41:17.558Z,99.99
2022-11-07T05:42:17.527Z,99.99
2022-11-07T05:43:17.888Z,99.99
2022-11-07T05:44:17.506Z,99.99
2022-11-07T05:45:17.497Z,99.99
2022-11-07T05:46:17.477Z,99.99
2022-11-07T05:47:17.461Z,99.99
2022-11-07T05:48:17.451Z,99.99
2022-11-07T05:49:17.465Z,99.99
2022-11-07T05:50:17.424Z,99.99
2022-11-07T05:51:17.411Z,99.99
2022-11-07T05:52:17.406Z,99.99
2022-11-07T05:53:17.989Z,99.99
2022-11-07T05:54:17.372Z,99.99
2022-11-07T05:55:17.362Z,99.99
2022-11-07T05:56:17.354Z,99.99
2022-11-07T05:57:17.331Z,99.99
2022-11-07T05:58:17.321Z,99.99
2022-11-07T05:59:17.309Z,99.99
2022-11-07T06:00:17.300Z,99.99
2022-11-07T06:01:17.289Z,99.99
2022-11-07T06:02:17.436Z,99.99
2022-11-07T06:03:17.879Z,99.99
2022-11-07T06:04:17.240Z,99.99
2022-11-07T06:05:20.511Z,99.99
2022-11-07T06:06:18.244Z,99.99
2022-11-07T06:07:17.202Z,99.99
2022-11-07T06:08:17.189Z,99.99
2022-11-07T06:09:17.186Z,99.99
2022-11-07T06:10:17.167Z,99.99
2022-11-07T06:11:17.152Z,99.99
2022-11-07T06:12:17.140Z,99.99
2022-11-07T06:13:17.541Z,99.99
2022-11-07T06:14:17.120Z,99.99
2022-11-07T06:15:17.103Z,99.99
2022-11-07T06:16:17.090Z,99.99
2022-11-07T06:17:17.080Z,99.99
2022-11-07T06:18:17.061Z,99.99
2022-11-07T06:19:17.049Z,99.99
2022-11-07T06:20:17.034Z,99.99
2022-11-07T06:21:17.057Z,99.99
2022-11-07T06:22:17.023Z,99.99
2022-11-07T06:23:17.471Z,99.99
2022-11-07T06:24:16.989Z,99.99
2022-11-07T06:25:16.980Z,99.99
2022-11-07T06:26:16.962Z,99.99
2022-11-07T06:27:16.944Z,99.99
2022-11-07T06:28:16.936Z,99.99
2022-11-07T06:29:16.921Z,99.99
2022-11-07T06:30:16.906Z,99.99
2022-11-07T06:31:16.907Z,99.99
2022-11-07T06:32:16.882Z,99.99
2022-11-07T06:33:17.345Z,99.99
2022-11-07T06:34:16.855Z,99.99
2022-11-07T06:35:16.848Z,99.99
2022-11-07T06:36:16.835Z,99.99
2022-11-07T06:37:16.843Z,99.99
2022-11-07T06:38:16.803Z,99.99
2022-11-07T06:39:16.797Z,99.99
2022-11-07T06:40:16.780Z,99.99
2022-11-07T06:41:16.767Z,99.99
2022-11-07T06:42:16.754Z,99.99
2022-11-07T06:43:17.008Z,99.99
2022-11-07T06:44:16.737Z,99.99
2022-11-07T06:45:16.711Z,99.99
2022-11-07T06:46:16.699Z,99.99
2022-11-07T06:47:16.689Z,99.99
2022-11-07T06:48:16.679Z,99.99
2022-11-07T06:49:16.660Z,99.99
2022-11-07T06:50:16.646Z,99.99
2022-11-07T06:51:16.634Z,99.99
2022-11-07T06:52:16.629Z,99.99
2022-11-07T06:53:16.908Z,99.99
2022-11-07T06:54:16.599Z,99.99
2022-11-07T06:55:16.583Z,99.99
2022-11-07T06:56:16.576Z,99.99
2022-11-07T06:57:16.560Z,99.99
2022-11-07T06:58:16.551Z,99.99
2022-11-07T06:59:16.532Z,99.99
2022-11-07T07:00:16.523Z,99.99
2022-11-07T07:01:16.677Z,99.99
2022-11-07T07:02:36.817Z,99.99
2022-11-07T07:03:17.936Z,99.99
2022-11-07T07:04:16.467Z,99.99
2022-11-07T07:05:20.871Z,99.99
2022-11-07T07:06:16.442Z,99.99
2022-11-07T07:07:16.429Z,99.99
2022-11-07T07:08:16.412Z,99.99
2022-11-07T07:09:16.430Z,99.99
2022-11-07T07:10:16.391Z,99.99
2022-11-07T07:11:16.378Z,99.99
2022-11-07T07:12:16.361Z,99.99
2022-11-07T07:13:16.774Z,99.99
2022-11-07T07:14:16.345Z,99.99
2022-11-07T07:15:16.326Z,99.99
2022-11-07T07:16:16.312Z,99.99
2022-11-07T07:17:16.294Z,99.99
2022-11-07T07:18:16.286Z,99.99
2022-11-07T07:19:16.268Z,99.99
2022-11-07T07:20:16.258Z,99.99
2022-11-07T07:21:16.245Z,99.99
2022-11-07T07:22:16.230Z,99.99
2022-11-07T07:23:16.470Z,99.99
2022-11-07T07:24:16.204Z,99.99
2022-11-07T07:25:16.311Z,99.74
2022-11-07T07:26:16.176Z,99.39
2022-11-07T07:27:16.160Z,98.93
2022-11-07T07:28:16.147Z,98.16
2022-11-07T07:29:16.135Z,97.29
2022-11-07T07:30:16.125Z,96.11
2022-11-07T07:31:16.111Z,94.93
2022-11-07T07:32:16.094Z,94.31
2022-11-07T07:33:16.500Z,94.00
2022-11-07T07:34:16.071Z,93.44
2022-11-07T07:35:16.060Z,92.82
2022-11-07T07:36:20.485Z,92.06
2022-11-07T07:37:16.030Z,91.60
2022-11-07T07:38:16.021Z,90.53
2022-11-07T07:39:16.005Z,89.67
2022-11-07T07:40:15.993Z,88.90
2022-11-07T07:41:16.094Z,88.14
2022-11-07T07:42:15.968Z,87.28
2022-11-07T07:43:16.308Z,86.42
2022-11-07T07:44:15.936Z,85.60
2022-11-07T07:45:15.930Z,84.53
2022-11-07T07:46:15.909Z,84.22
2022-11-07T07:47:15.893Z,84.16
2022-11-07T07:48:15.881Z,83.89
2022-11-07T07:49:15.872Z,83.85
2022-11-07T07:50:15.854Z,83.85
2022-11-07T07:51:15.842Z,83.95
2022-11-07T07:52:15.843Z,84.47
2022-11-07T07:53:16.039Z,85.08
2022-11-07T07:54:15.800Z,85.94
2022-11-07T07:55:15.783Z,86.80
2022-11-07T07:56:15.773Z,87.05
2022-11-07T07:57:15.891Z,87.67
2022-11-07T07:58:15.751Z,88.33
2022-11-07T07:59:15.728Z,88.74
2022-11-07T08:00:15.726Z,89.15
2022-11-07T08:01:15.872Z,89.09
2022-11-07T08:02:15.784Z,89.81
2022-11-07T08:03:16.087Z,90.18
2022-11-07T08:04:15.671Z,90.39
2022-11-07T08:05:15.657Z,89.15
2022-11-07T08:06:15.649Z,89.01
2022-11-07T08:07:15.630Z,88.66
2022-11-07T08:08:15.621Z,87.94
2022-11-07T08:09:15.609Z,88.10
2022-11-07T08:10:40.189Z,86.77
2022-11-07T08:11:16.608Z,86.05
2022-11-07T08:12:15.565Z,86.97
2022-11-07T08:13:16.132Z,85.76
2022-11-07T08:14:15.538Z,84.86
2022-11-07T08:15:15.530Z,83.59
2022-11-07T08:16:15.529Z,83.14
2022-11-07T08:17:15.503Z,81.77
2022-11-07T08:18:15.513Z,80.74
2022-11-07T08:19:15.497Z,78.96
2022-11-07T08:20:15.463Z,78.75
2022-11-07T08:21:15.464Z,79.44
2022-11-07T08:22:15.437Z,79.75
2022-11-07T08:23:16.985Z,79.71
2022-11-07T08:24:15.412Z,80.53
2022-11-07T08:25:15.397Z,81.21
2022-11-07T08:26:15.392Z,79.84
2022-11-07T08:27:15.373Z,79.80
2022-11-07T08:28:15.360Z,79.57
2022-11-07T08:29:15.483Z,78.41
2022-11-07T08:30:18.069Z,77.65
2022-11-07T08:31:15.322Z,76.97
2022-11-07T08:32:15.320Z,76.01
2022-11-07T08:33:15.748Z,75.27
2022-11-07T08:34:15.283Z,73.64
2022-11-07T08:35:15.275Z,74.58
2022-11-07T08:36:15.261Z,75.92
2022-11-07T08:37:15.249Z,76.62
2022-11-07T08:38:15.236Z,77.07
2022-11-07T08:39:15.224Z,77.92
2022-11-07T08:40:15.205Z,78.30
2022-11-07T08:41:19.582Z,79.83
2022-11-07T08:42:16.223Z,80.38
2022-11-07T08:43:15.569Z,80.42
2022-11-07T08:44:15.158Z,81.44
2022-11-07T08:45:15.168Z,82.05
2022-11-07T08:46:15.133Z,82.22
2022-11-07T08:47:15.118Z,81.05
2022-11-07T08:48:15.103Z,80.71
2022-11-07T08:49:15.095Z,80.71
2022-11-07T08:50:15.078Z,80.71
2022-11-07T08:51:15.072Z,80.14
2022-11-07T08:52:15.053Z,80.20
2022-11-07T08:53:15.329Z,80.61
2022-11-07T08:54:15.026Z,79.73
2022-11-07T08:55:15.020Z,81.10
2022-11-07T08:56:15.025Z,81.13
2022-11-07T08:57:15.004Z,81.74
2022-11-07T08:58:14.982Z,82.70
2022-11-07T08:59:14.975Z,83.52
2022-11-07T09:00:14.953Z,84.03
2022-11-07T09:01:15.019Z,83.76
2022-11-07T09:03:44.680Z,85.17
2022-11-07T09:04:16.025Z,85.48
2022-11-07T09:05:14.896Z,84.99
2022-11-07T09:06:14.873Z,83.56
2022-11-07T09:07:14.860Z,83.87
2022-11-07T09:08:14.845Z,83.73
2022-11-07T09:09:16.809Z,83.22
2022-11-07T09:10:14.829Z,83.36
2022-11-07T09:11:14.808Z,83.97
2022-11-07T09:12:14.798Z,83.81
2022-11-07T09:13:15.382Z,85.07
2022-11-07T09:14:14.766Z,85.69
2022-11-07T09:15:14.765Z,85.17
2022-11-07T09:16:14.750Z,85.99
2022-11-07T09:17:14.831Z,85.99
2022-11-07T09:18:14.717Z,85.89
2022-11-07T09:19:14.711Z,86.46
2022-11-07T09:20:14.699Z,85.96
2022-11-07T09:21:20.707Z,84.58
2022-11-07T09:22:15.728Z,84.14
2022-11-07T09:23:15.140Z,83.93
2022-11-07T09:24:14.645Z,82.50
2022-11-07T09:25:14.633Z,82.60
2022-11-07T09:26:14.620Z,83.18
2022-11-07T09:27:14.603Z,83.38
2022-11-07T09:28:14.599Z,82.42
2022-11-07T09:29:14.577Z,82.22
2022-11-07T09:30:14.566Z,81.60
2022-11-07T09:31:14.551Z,81.60
2022-11-07T09:32:42.894Z,81.74
2022-11-07T09:33:16.006Z,81.34
2022-11-07T09:34:14.511Z,81.95
2022-11-07T09:35:14.531Z,82.12
2022-11-07T09:36:14.493Z,82.22
2022-11-07T09:37:14.476Z,80.91
2022-11-07T09:38:14.464Z,79.39
2022-11-07T09:39:14.463Z,80.51
2022-11-07T09:40:14.436Z,79.55
2022-11-07T09:41:14.423Z,78.98
2022-11-07T09:42:14.410Z,79.18
2022-11-07T09:43:14.861Z,80.04
2022-11-07T09:44:14.383Z,80.55
2022-11-07T09:45:14.636Z,80.58
2022-11-07T09:46:14.358Z,81.40
2022-11-07T09:47:14.350Z,80.99
2022-11-07T09:48:14.338Z,81.81
2022-11-07T09:49:14.344Z,82.42
2022-11-07T09:50:14.305Z,82.36
2022-11-07T09:51:14.294Z,83.07
2022-11-07T09:52:14.281Z,82.56
2022-11-07T09:53:14.798Z,83.38
2022-11-07T09:54:14.254Z,83.38
2022-11-07T09:55:14.246Z,82.87
2022-11-07T09:56:14.290Z,82.87
2022-11-07T09:57:14.485Z,82.77
2022-11-07T09:58:14.216Z,83.48
2022-11-07T09:59:14.598Z,82.93
2022-11-07T10:00:14.175Z,82.42
2022-11-07T10:01:14.215Z,82.22
2022-11-07T10:02:14.400Z,82.12
2022-11-07T10:03:14.533Z,81.95
2022-11-07T10:04:29.563Z,82.87
2022-11-07T10:05:15.345Z,82.20
2022-11-07T10:06:14.114Z,83.79
2022-11-07T10:07:14.090Z,82.81
2022-11-07T10:08:14.081Z,83.11
2022-11-07T10:09:14.061Z,83.01
2022-11-07T10:10:14.050Z,83.32
2022-11-07T10:11:14.040Z,84.14
2022-11-07T10:12:14.020Z,82.67
2022-11-07T10:13:14.389Z,82.53
2022-11-07T10:14:14.002Z,81.81
2022-11-07T10:15:13.992Z,81.91
2022-11-07T10:16:13.978Z,81.91
2022-11-07T10:17:13.963Z,82.12
2022-11-07T10:18:13.959Z,81.71
2022-11-07T10:19:13.931Z,82.63
2022-11-07T10:20:13.926Z,81.98
2022-11-07T10:21:37.270Z,82.59
2022-11-07T10:22:14.934Z,81.84
2022-11-07T10:23:14.273Z,81.02
2022-11-07T10:24:13.870Z,80.78
2022-11-07T10:25:13.870Z,79.66
2022-11-07T10:26:13.845Z,79.86
2022-11-07T10:27:13.835Z,79.96
2022-11-07T10:28:13.816Z,80.27
2022-11-07T10:29:13.805Z,79.69
2022-11-07T10:30:13.797Z,80.51
2022-11-07T10:31:13.780Z,79.49
2022-11-07T10:32:13.771Z,80.55
2022-11-07T10:33:14.111Z,80.34
2022-11-07T10:34:13.742Z,81.20
2022-11-07T10:35:13.724Z,80.79
2022-11-07T10:36:13.717Z,80.69
2022-11-07T10:37:13.721Z,81.40
2022-11-07T10:38:13.689Z,81.10
2022-11-07T10:39:13.677Z,80.89
2022-11-07T10:40:13.664Z,81.26
2022-11-07T10:41:13.651Z,80.96
2022-11-07T10:42:13.641Z,81.37
2022-11-07T10:43:14.016Z,81.84
2022-11-07T10:44:13.712Z,81.23
2022-11-07T10:45:13.600Z,80.71
2022-11-07T10:46:13.589Z,81.23
2022-11-07T10:47:13.580Z,80.41
2022-11-07T10:48:13.884Z,79.93
2022-11-07T10:49:13.550Z,81.32
2022-11-07T10:50:13.534Z,81.53
2022-11-07T10:51:13.527Z,80.30
2022-11-07T10:52:13.513Z,81.18
2022-11-07T10:53:13.520Z,80.07
2022-11-07T10:54:15.904Z,79.96
2022-11-07T10:55:13.477Z,79.75
2022-11-07T10:56:13.467Z,78.94
2022-11-07T10:57:13.454Z,80.07
2022-11-07T10:58:13.805Z,81.04
2022-11-07T10:59:13.432Z,80.54
2022-11-07T11:00:13.409Z,80.43
2022-11-07T11:01:13.464Z,80.09
2022-11-07T11:02:13.427Z,79.38
2022-11-07T11:03:13.384Z,79.17
2022-11-07T11:04:13.361Z,79.00
2022-11-07T11:05:13.345Z,79.38
2022-11-07T11:06:13.360Z,78.97
2022-11-07T11:07:13.324Z,79.27
2022-11-07T11:08:13.813Z,78.87
2022-11-07T11:09:13.323Z,78.70
2022-11-07T11:10:13.286Z,79.48
2022-11-07T11:11:13.272Z,79.99
2022-11-07T11:12:13.262Z,78.19
2022-11-07T11:13:13.244Z,78.80
2022-11-07T11:14:13.239Z,78.97
2022-11-07T11:15:13.301Z,79.07
2022-11-07T11:16:13.203Z,79.54
2022-11-07T11:17:13.267Z,79.34
2022-11-07T11:18:13.573Z,79.03
2022-11-07T11:19:13.170Z,78.39
2022-11-07T11:20:13.157Z,77.87
2022-11-07T11:21:13.144Z,77.20
2022-11-07T11:22:13.124Z,77.87
2022-11-07T11:23:13.531Z,78.08
2022-11-07T11:24:13.104Z,76.79
2022-11-07T11:25:13.119Z,77.61
2022-11-07T11:26:13.077Z,78.80
2022-11-07T11:27:13.065Z,76.76
2022-11-07T11:28:13.422Z,76.86
2022-11-07T11:29:13.035Z,77.26
2022-11-07T11:30:13.029Z,77.06
2022-11-07T11:31:13.021Z,76.25
2022-11-07T11:32:13.000Z,75.84
2022-11-07T11:33:13.092Z,77.26
2022-11-07T11:34:12.972Z,76.45
2022-11-07T11:35:12.962Z,76.65
2022-11-07T11:36:12.949Z,76.96
2022-11-07T11:37:12.939Z,77.17
2022-11-07T11:38:12.919Z,76.56
2022-11-07T11:39:12.908Z,77.06
2022-11-07T11:40:12.897Z,76.65
2022-11-07T11:41:12.928Z,76.25
2022-11-07T11:42:12.869Z,76.96
2022-11-07T11:43:12.970Z,76.69
2022-11-07T11:44:12.843Z,77.71
2022-11-07T11:45:12.838Z,78.12
2022-11-07T11:46:12.813Z,78.42
2022-11-07T11:47:12.801Z,78.22
2022-11-07T11:48:12.789Z,77.30
2022-11-07T11:49:12.787Z,77.34
2022-11-07T11:50:12.787Z,77.55
2022-11-07T11:51:12.755Z,78.77
2022-11-07T11:52:12.735Z,78.66
2022-11-07T11:53:12.735Z,78.53
2022-11-07T11:54:12.711Z,78.12
2022-11-07T11:55:12.699Z,78.42
2022-11-07T11:56:12.689Z,77.78
2022-11-07T11:57:12.699Z,78.80
2022-11-07T11:58:12.656Z,76.35
2022-11-07T11:59:12.649Z,77.67
2022-11-07T12:00:12.633Z,77.57
2022-11-07T12:01:12.704Z,76.45
2022-11-07T12:02:12.652Z,76.96
2022-11-07T12:03:12.612Z,77.10
2022-11-07T12:04:12.586Z,77.91
2022-11-07T12:05:12.586Z,77.30
2022-11-07T12:06:12.566Z,77.10
2022-11-07T12:07:12.544Z,78.22
2022-11-07T12:08:12.531Z,77.61
2022-11-07T12:09:17.358Z,76.90
2022-11-07T12:10:12.505Z,77.51
2022-11-07T12:11:12.495Z,77.81
2022-11-07T12:12:12.476Z,78.19
2022-11-07T12:13:12.490Z,78.59
2022-11-07T12:14:12.452Z,76.35
2022-11-07T12:15:12.441Z,77.17
2022-11-07T12:16:12.431Z,78.15
2022-11-07T12:17:12.426Z,75.91
2022-11-07T12:18:12.398Z,76.42
2022-11-07T12:19:12.387Z,77.03
2022-11-07T12:20:12.378Z,76.92
2022-11-07T12:21:12.366Z,77.91
2022-11-07T12:22:12.351Z,76.59
2022-11-07T12:23:12.338Z,75.26
2022-11-07T12:24:12.325Z,76.45
2022-11-07T12:25:12.313Z,74.92
2022-11-07T12:26:12.303Z,75.16
2022-11-07T12:27:12.290Z,74.65
2022-11-07T12:28:12.275Z,74.85
2022-11-07T12:29:12.290Z,76.99
2022-11-07T12:30:12.248Z,75.30
2022-11-07T12:31:12.251Z,76.52
2022-11-07T12:32:12.221Z,75.81
2022-11-07T12:33:12.208Z,77.03
2022-11-07T12:34:12.200Z,77.50
2022-11-07T12:35:12.193Z,75.67
2022-11-07T12:36:12.169Z,75.46
2022-11-07T12:37:12.155Z,75.70
2022-11-07T12:38:12.147Z,76.52
2022-11-07T12:39:12.131Z,77.64
2022-11-07T12:40:12.227Z,76.89
2022-11-07T12:41:12.106Z,76.18
2022-11-07T12:42:12.097Z,76.89
2022-11-07T12:43:12.079Z,74.96
2022-11-07T12:44:12.068Z,76.62
2022-11-07T12:45:12.087Z,77.44
2022-11-07T12:46:12.048Z,75.70
2022-11-07T12:47:12.025Z,76.11
2022-11-07T12:48:13.627Z,77.44
2022-11-07T12:49:12.009Z,76.68
2022-11-07T12:50:11.991Z,78.21
2022-11-07T12:51:11.980Z,77.47
2022-11-07T12:52:11.973Z,76.45
2022-11-07T12:53:11.947Z,76.86